Time;durP1;ratioP1;P1;durP2;ratioP2;P2;SDS_P1;SDS_P2;PMS_P1;PMS_P2;Temp;Humidity;BMP_temperature;BMP_pressure;BME280_temperature;BME280_humidity;BME280_pressure;Samples;Min_cycle;Max_cycle;Signal;HPM_P1;HPM_P2
2022/04/16 00:01:19;;;;;;;22.00;9.57;;;15.30;62.30;;;;;;4964843;28;20200;-79
2022/04/16 00:03:47;;;;;;;20.63;10.53;;;15.30;62.40;;;;;;4964419;28;20213;-79
2022/04/16 00:06:16;;;;;;;22.50;10.57;;;15.20;62.70;;;;;;4965086;28;20201;-80
2022/04/16 00:08:44;;;;;;;21.37;10.57;;;15.20;63.00;;;;;;4963754;28;20215;-82
2022/04/16 00:11:14;;;;;;;23.13;10.73;;;15.10;63.60;;;;;;4963742;28;20211;-80
2022/04/16 00:13:42;;;;;;;19.07;9.73;;;15.10;64.30;;;;;;4963057;28;20201;-80
2022/04/16 00:16:11;;;;;;;17.57;10.20;;;15.00;63.90;;;;;;4965019;28;20220;-80
2022/04/16 00:18:39;;;;;;;24.97;10.57;;;15.00;63.70;;;;;;4964969;28;20205;-79
2022/04/16 00:21:08;;;;;;;20.07;11.17;;;15.00;63.60;;;;;;4962489;28;20667;-81
2022/04/16 00:23:37;;;;;;;20.07;10.50;;;15.00;63.80;;;;;;4965109;28;20658;-79
2022/04/16 00:26:07;;;;;;;24.10;11.23;;;15.00;63.90;;;;;;4962764;28;20898;-80
2022/04/16 00:28:36;;;;;;;24.33;11.50;;;14.90;64.00;;;;;;4962011;28;20208;-80
2022/04/16 00:31:05;;;;;;;20.73;11.03;;;14.90;64.00;;;;;;4962680;28;20747;-79
2022/04/16 00:33:33;;;;;;;23.03;11.00;;;14.90;64.00;;;;;;4962641;28;20844;-79
2022/04/16 00:36:02;;;;;;;23.17;10.93;;;14.90;64.10;;;;;;4962696;28;20315;-80
2022/04/16 00:38:30;;;;;;;25.70;11.47;;;14.80;64.10;;;;;;4964623;28;20231;-79
2022/04/16 00:41:00;;;;;;;19.43;10.87;;;14.80;64.30;;;;;;4966894;28;20555;-80
2022/04/16 00:43:29;;;;;;;19.03;11.40;;;14.80;64.40;;;;;;4965348;28;20677;-80
2022/04/16 00:46:00;;;;;;;20.53;11.07;;;14.80;64.40;;;;;;4965494;28;20208;-80
2022/04/16 00:48:28;;;;;;;18.60;10.77;;;14.80;64.60;;;;;;4966072;28;20209;-80
2022/04/16 00:50:59;;;;;;;23.03;11.10;;;14.80;64.60;;;;;;4965059;28;20201;-80
2022/04/16 00:53:28;;;;;;;31.13;11.20;;;14.70;64.70;;;;;;4965566;28;20201;-79
2022/04/16 00:55:58;;;;;;;21.40;11.00;;;14.70;64.70;;;;;;4966120;28;20197;-81
2022/04/16 00:58:26;;;;;;;23.47;11.80;;;14.70;64.90;;;;;;4965272;28;20572;-81
2022/04/16 01:00:55;;;;;;;21.77;11.87;;;14.70;65.10;;;;;;4964820;28;20730;-82
2022/04/16 01:03:26;;;;;;;17.97;10.90;;;14.60;65.20;;;;;;4963722;28;20206;-82
2022/04/16 01:05:55;;;;;;;24.47;11.60;;;14.60;65.80;;;;;;4965917;28;20229;-80
2022/04/16 01:08:23;;;;;;;22.00;12.13;;;14.60;65.80;;;;;;4964761;28;20205;-80
2022/04/16 01:10:51;;;;;;;24.90;12.00;;;14.60;65.90;;;;;;4964650;28;20214;-80
2022/04/16 01:13:21;;;;;;;19.63;11.63;;;14.50;65.90;;;;;;4965876;28;20795;-81
2022/04/16 01:15:50;;;;;;;22.43;10.93;;;14.50;66.00;;;;;;4965305;28;20725;-80
2022/04/16 01:18:18;;;;;;;22.00;11.50;;;14.50;66.20;;;;;;4967110;28;20301;-80
2022/04/16 01:20:48;;;;;;;19.93;12.73;;;14.40;66.60;;;;;;4965776;28;20208;-80
2022/04/16 01:23:18;;;;;;;24.27;13.70;;;14.40;67.10;;;;;;4966552;28;20236;-80
2022/04/16 01:25:47;;;;;;;23.97;13.97;;;14.40;67.10;;;;;;4965181;28;20898;-80
2022/04/16 01:28:15;;;;;;;23.47;12.83;;;14.40;67.10;;;;;;4965228;28;20205;-81
2022/04/16 01:30:45;;;;;;;24.93;13.13;;;14.30;67.50;;;;;;4966072;28;20754;-81
2022/04/16 01:33:15;;;;;;;28.77;13.77;;;14.30;67.50;;;;;;4966746;28;20561;-80
2022/04/16 01:35:45;;;;;;;27.87;14.50;;;14.30;67.90;;;;;;4968221;28;20207;-82
2022/04/16 01:38:13;;;;;;;26.20;13.77;;;14.30;68.20;;;;;;4969156;28;20262;-81
2022/04/16 01:40:43;;;;;;;28.37;13.37;;;14.20;68.30;;;;;;4970152;28;20201;-82
2022/04/16 01:43:11;;;;;;;27.50;14.00;;;14.20;68.50;;;;;;4968765;28;20197;-81
2022/04/16 01:45:41;;;;;;;32.80;14.60;;;14.20;68.80;;;;;;4970044;28;20757;-80
2022/04/16 01:48:10;;;;;;;24.20;14.90;;;14.20;69.00;;;;;;4969617;28;20202;-80
2022/04/16 01:50:40;;;;;;;30.67;15.27;;;14.10;69.10;;;;;;4969385;28;20201;-80
2022/04/16 01:53:09;;;;;;;18.50;14.50;;;14.10;68.80;;;;;;4967994;28;20792;-79
2022/04/16 01:55:37;;;;;;;26.87;14.23;;;14.10;68.90;;;;;;4970123;28;20233;-80
2022/04/16 01:58:07;;;;;;;30.90;15.27;;;14.10;69.20;;;;;;4968551;28;20237;-81
2022/04/16 02:00:36;;;;;;;27.47;14.10;;;14.10;69.70;;;;;;4969697;28;20394;-80
2022/04/16 02:03:05;;;;;;;31.33;14.27;;;14.00;69.70;;;;;;4968482;28;20209;-82
2022/04/16 02:05:33;;;;;;;24.30;13.93;;;14.00;70.00;;;;;;4968190;28;20224;-80
2022/04/16 02:08:02;;;;;;;22.17;14.60;;;14.00;70.00;;;;;;4967227;28;20236;-80
2022/04/16 02:10:30;;;;;;;29.73;14.93;;;14.00;70.20;;;;;;4970919;28;20205;-80
2022/04/16 02:13:00;;;;;;;28.27;14.67;;;14.00;70.40;;;;;;4968944;28;20833;-80
2022/04/16 02:15:30;;;;;;;21.97;13.87;;;14.00;70.50;;;;;;4969371;28;20193;-80
2022/04/16 02:17:59;;;;;;;27.33;14.33;;;14.00;70.40;;;;;;4967054;28;21593;-80
2022/04/16 02:20:27;;;;;;;27.83;15.50;;;14.00;70.30;;;;;;4968704;28;20201;-80
2022/04/16 02:22:55;;;;;;;26.67;15.67;;;14.00;70.30;;;;;;4965458;28;20206;-79
2022/04/16 02:25:25;;;;;;;32.27;15.70;;;13.90;70.50;;;;;;4969146;28;20226;-80
2022/04/16 02:27:53;;;;;;;31.70;16.47;;;14.00;70.50;;;;;;4967022;28;20206;-80
2022/04/16 02:30:22;;;;;;;30.20;15.90;;;14.00;70.40;;;;;;4967821;28;20228;-80
2022/04/16 02:32:54;;;;;;;26.87;16.23;;;14.00;70.40;;;;;;4965303;28;20237;-79
2022/04/16 02:35:23;;;;;;;25.87;15.53;;;14.00;70.50;;;;;;4968726;28;20193;-80
2022/04/16 02:37:51;;;;;;;33.87;16.70;;;14.00;70.40;;;;;;4965696;28;20194;-80
2022/04/16 02:40:20;;;;;;;29.50;15.23;;;14.00;70.80;;;;;;4968412;28;20202;-79
2022/04/16 02:42:48;;;;;;;33.23;15.70;;;13.90;71.40;;;;;;4963811;28;21063;-81
2022/04/16 02:48:07;;;;;;;31.17;16.43;;;13.90;71.00;;;;;;4967573;28;22570;-80
2022/04/16 02:50:35;;;;;;;29.60;15.60;;;13.90;70.90;;;;;;4968991;28;20197;-79
2022/04/16 02:53:04;;;;;;;30.60;16.00;;;13.90;70.70;;;;;;4965718;28;20210;-80
2022/04/16 02:55:32;;;;;;;26.50;15.40;;;13.90;70.80;;;;;;4967618;28;20249;-81
2022/04/16 02:58:02;;;;;;;29.97;15.73;;;13.90;70.90;;;;;;4968006;28;20207;-79
2022/04/16 03:00:30;;;;;;;28.40;16.00;;;13.90;70.70;;;;;;4968775;28;20209;-79
2022/04/16 03:02:59;;;;;;;28.27;15.07;;;13.90;70.70;;;;;;4964823;28;20734;-79
2022/04/16 03:05:28;;;;;;;32.13;15.20;;;13.90;70.50;;;;;;4969570;28;20934;-80
2022/04/16 03:07:57;;;;;;;29.57;14.63;;;13.90;70.60;;;;;;4966925;28;20202;-79
2022/04/16 03:10:26;;;;;;;29.10;14.90;;;13.90;72.20;;;;;;4966555;28;21150;-80
2022/04/16 03:12:55;;;;;;;26.80;15.17;;;13.80;72.20;;;;;;4965783;28;20205;-82
2022/04/16 03:18:11;;;;;;;28.17;15.30;;;13.80;72.70;;;;;;4966645;28;21234;-81
2022/04/16 03:20:42;;;;;;;27.57;13.77;;;13.80;72.30;;;;;;4967166;28;20200;-80
2022/04/16 03:23:11;;;;;;;23.90;13.80;;;13.80;72.50;;;;;;4966275;28;20216;-78
2022/04/16 03:25:40;;;;;;;30.07;14.73;;;13.80;72.80;;;;;;4968249;28;20217;-80
2022/04/16 03:28:09;;;;;;;25.80;14.00;;;13.70;72.70;;;;;;4966827;28;20300;-82
2022/04/16 03:30:38;;;;;;;26.83;14.03;;;13.80;72.20;;;;;;4967091;28;20233;-80
2022/04/16 03:33:06;;;;;;;24.53;13.37;;;13.80;72.40;;;;;;4967832;28;20205;-80
2022/04/16 03:35:35;;;;;;;24.00;14.87;;;13.80;72.40;;;;;;4966862;28;20464;-80
2022/04/16 03:38:06;;;;;;;29.73;14.60;;;13.80;72.30;;;;;;4968746;28;20248;-80
2022/04/16 03:40:35;;;;;;;26.47;15.17;;;13.70;72.50;;;;;;4965887;28;20675;-80
2022/04/16 03:43:03;;;;;;;24.33;12.73;;;13.80;72.70;;;;;;4966186;28;20197;-79
2022/04/16 03:45:34;;;;;;;23.87;12.50;;;13.80;72.80;;;;;;4966163;28;20220;-79
2022/04/16 03:48:05;;;;;;;21.13;12.07;;;13.70;72.70;;;;;;4964694;28;20204;-79
2022/04/16 03:50:35;;;;;;;26.90;12.87;;;13.80;73.00;;;;;;4967840;28;20208;-81
2022/04/16 03:53:05;;;;;;;23.30;12.10;;;13.80;72.80;;;;;;4966204;28;20201;-80
2022/04/16 04:01:08;;;;;;;25.83;11.57;;;13.80;72.60;;;;;;4966376;28;20193;-81
2022/04/16 04:03:37;;;;;;;20.00;10.80;;;13.90;72.30;;;;;;4964169;28;20225;-79
2022/04/16 04:06:07;;;;;;;20.07;11.87;;;13.90;72.20;;;;;;4964142;28;20217;-79
2022/04/16 04:08:37;;;;;;;19.17;11.50;;;13.90;72.20;;;;;;4965360;28;20210;-79
2022/04/16 04:11:06;;;;;;;24.33;11.97;;;13.90;72.30;;;;;;4965854;28;20228;-80
2022/04/16 04:13:34;;;;;;;20.77;11.93;;;13.90;72.30;;;;;;4965601;28;20225;-80
2022/04/16 04:16:03;;;;;;;23.40;12.03;;;14.00;72.20;;;;;;4964626;28;20201;-79
2022/04/16 04:18:32;;;;;;;21.47;11.93;;;14.00;72.10;;;;;;4965188;28;20838;-80
2022/04/16 04:21:00;;;;;;;22.50;11.73;;;14.00;72.00;;;;;;4966653;28;20201;-79
2022/04/16 04:23:29;;;;;;;22.70;12.20;;;14.10;71.90;;;;;;4967650;28;20201;-80
2022/04/16 04:25:59;;;;;;;21.97;11.47;;;14.10;71.70;;;;;;4963189;28;20222;-79
2022/04/16 04:28:28;;;;;;;20.70;11.20;;;14.20;71.70;;;;;;4964153;28;20223;-79
2022/04/16 04:30:56;;;;;;;22.00;11.60;;;14.20;71.50;;;;;;4966409;28;20205;-79
2022/04/16 04:33:25;;;;;;;21.90;11.23;;;14.20;71.30;;;;;;4961610;28;20208;-79
2022/04/16 04:35:56;;;;;;;19.23;11.13;;;14.20;71.30;;;;;;4966031;28;20192;-80
2022/04/16 04:38:24;;;;;;;21.00;10.47;;;14.30;71.10;;;;;;4967023;28;20216;-79
2022/04/16 04:40:53;;;;;;;22.13;11.60;;;14.30;71.30;;;;;;4964574;28;20204;-79
2022/04/16 04:43:22;;;;;;;20.20;11.40;;;14.40;71.20;;;;;;4965990;28;20216;-80
2022/04/16 04:45:54;;;;;;;26.10;11.90;;;14.50;71.10;;;;;;4966479;28;21734;-79
2022/04/16 04:48:26;;;;;;;18.53;11.43;;;14.50;71.00;;;;;;4963700;28;20305;-79
2022/04/16 04:50:56;;;;;;;17.13;10.00;;;14.60;71.10;;;;;;4965680;28;20284;-78
2022/04/16 04:53:25;;;;;;;20.70;10.67;;;14.60;70.90;;;;;;4964851;28;20204;-79
2022/04/16 04:55:53;;;;;;;24.37;10.60;;;14.70;70.80;;;;;;4964758;28;20217;-77
2022/04/16 04:58:23;;;;;;;19.07;10.10;;;14.80;71.00;;;;;;4964879;28;20193;-77
2022/04/16 05:00:54;;;;;;;18.77;9.77;;;14.90;70.80;;;;;;4965531;28;21100;-78
2022/04/16 05:03:22;;;;;;;19.17;10.10;;;14.90;70.60;;;;;;4965367;28;20236;-81
2022/04/16 05:05:53;;;;;;;19.17;9.67;;;15.00;70.60;;;;;;4965523;28;20202;-79
2022/04/16 05:08:22;;;;;;;20.87;10.50;;;15.10;70.80;;;;;;4968127;28;20194;-78
2022/04/16 05:10:50;;;;;;;20.60;10.40;;;15.10;70.40;;;;;;4968901;28;20201;-79
2022/04/16 05:13:20;;;;;;;19.07;9.90;;;15.20;70.30;;;;;;4971087;28;20224;-79
2022/04/16 05:15:50;;;;;;;18.83;9.77;;;15.30;70.20;;;;;;4986045;28;20229;-78
2022/04/16 05:18:18;;;;;;;16.83;8.30;;;15.40;70.00;;;;;;4986164;28;20265;-81
2022/04/16 05:20:47;;;;;;;17.27;8.17;;;15.50;69.90;;;;;;4972852;28;20506;-78
2022/04/16 05:23:15;;;;;;;16.17;9.03;;;15.50;69.10;;;;;;4971517;28;20197;-78
2022/04/16 05:25:43;;;;;;;13.33;8.23;;;15.70;69.20;;;;;;4968660;28;20210;-79
2022/04/16 05:28:12;;;;;;;13.67;7.90;;;15.70;68.80;;;;;;4970161;28;20217;-78
2022/04/16 05:30:44;;;;;;;13.30;8.20;;;15.80;68.40;;;;;;4970311;28;20224;-79
2022/04/16 05:34:18;;;;;;;16.60;7.47;;;15.80;68.20;;;;;;4969830;28;20727;-80
2022/04/16 05:36:07;;;;;;;14.17;7.70;;;16.00;68.20;;;;;;4968753;28;20193;-81
2022/04/16 05:38:40;;;;;;;10.83;6.87;;;16.00;68.00;;;;;;4968599;28;20189;-78
2022/04/16 05:41:08;;;;;;;12.30;7.13;;;16.10;67.80;;;;;;4968875;28;20755;-76
2022/04/16 05:43:37;;;;;;;12.83;8.00;;;16.20;67.80;;;;;;4969365;28;20201;-79
2022/04/16 05:46:08;;;;;;;11.87;6.63;;;16.20;67.70;;;;;;4966571;28;20205;-79
2022/04/16 05:48:38;;;;;;;17.17;7.50;;;16.30;67.70;;;;;;4969045;28;20221;-79
2022/04/16 05:51:07;;;;;;;11.20;6.90;;;16.40;67.50;;;;;;4969622;28;20205;-77
2022/04/16 05:53:36;;;;;;;14.50;6.30;;;16.40;67.30;;;;;;4969251;28;20197;-79
2022/04/16 05:56:04;;;;;;;11.23;6.50;;;16.40;67.10;;;;;;4967952;28;20217;-80
2022/04/16 05:58:33;;;;;;;13.97;6.60;;;16.50;67.10;;;;;;4967618;28;20197;-80
2022/04/16 06:01:02;;;;;;;13.50;7.13;;;16.60;66.90;;;;;;4968076;28;20209;-80
2022/04/16 06:03:31;;;;;;;11.87;6.30;;;16.60;67.00;;;;;;4967216;28;20248;-80
2022/04/16 06:06:01;;;;;;;15.87;6.40;;;16.70;67.10;;;;;;4965770;28;20621;-79
2022/04/16 06:08:30;;;;;;;11.30;6.63;;;16.70;67.40;;;;;;4967498;28;20241;-76
2022/04/16 06:10:59;;;;;;;12.07;7.00;;;16.70;66.90;;;;;;4968438;28;20209;-82
2022/04/16 06:13:30;;;;;;;11.07;6.20;;;16.80;66.70;;;;;;4968207;28;20220;-80
2022/04/16 06:15:58;;;;;;;9.47;6.33;;;16.80;66.80;;;;;;4967825;28;20303;-78
2022/04/16 06:18:27;;;;;;;11.83;5.97;;;16.80;66.90;;;;;;4968195;28;20229;-79
2022/04/16 06:20:57;;;;;;;15.13;6.10;;;16.90;67.10;;;;;;4968085;28;20198;-79
2022/04/16 06:23:26;;;;;;;11.13;5.77;;;16.90;67.30;;;;;;4969761;28;20225;-82
2022/04/16 06:25:55;;;;;;;10.23;6.20;;;17.00;67.30;;;;;;4968473;28;20705;-78
2022/04/16 06:28:23;;;;;;;9.80;6.03;;;17.10;67.10;;;;;;4968205;28;20220;-79
2022/04/16 06:30:50;;;;;;;11.67;5.50;;;17.20;68.00;;;;;;4964776;28;20858;-78
2022/04/16 06:33:18;;;;;;;9.63;5.67;;;17.30;67.30;;;;;;4969226;28;20204;-78
2022/04/16 06:35:47;;;;;;;9.57;5.27;;;17.40;67.20;;;;;;4969626;28;20197;-78
2022/04/16 06:38:16;;;;;;;11.90;5.60;;;17.50;67.20;;;;;;4967747;28;20197;-78
2022/04/16 06:40:45;;;;;;;11.40;5.17;;;17.60;67.20;;;;;;4968521;28;20215;-77
2022/04/16 06:43:14;;;;;;;11.27;4.63;;;17.60;67.00;;;;;;4967010;28;20292;-76
2022/04/16 06:45:42;;;;;;;8.43;4.97;;;17.80;66.40;;;;;;4968977;28;20227;-77
2022/04/16 06:48:10;;;;;;;10.60;5.03;;;17.80;66.30;;;;;;4969087;28;20217;-78
2022/04/16 06:50:39;;;;;;;10.27;4.27;;;17.90;65.80;;;;;;4968891;28;20291;-78
2022/04/16 06:53:07;;;;;;;7.20;4.10;;;18.10;65.80;;;;;;4967352;28;20206;-77
2022/04/16 06:55:36;;;;;;;6.23;3.90;;;18.20;65.70;;;;;;4969217;28;20682;-78
2022/04/16 06:58:06;;;;;;;6.77;3.80;;;18.30;65.60;;;;;;4968018;28;20563;-77
2022/04/16 07:00:34;;;;;;;7.57;3.77;;;18.40;64.70;;;;;;4966272;28;20204;-78
2022/04/16 07:03:02;;;;;;;9.30;3.67;;;18.50;64.40;;;;;;4966498;28;20204;-78
2022/04/16 07:05:31;;;;;;;7.37;3.57;;;18.60;64.40;;;;;;4967923;28;20201;-76
2022/04/16 07:08:00;;;;;;;7.27;4.00;;;18.70;63.70;;;;;;4967081;28;20226;-79
2022/04/16 07:10:28;;;;;;;5.20;3.17;;;18.80;63.30;;;;;;4968798;28;20201;-79
2022/04/16 07:12:57;;;;;;;10.47;3.50;;;18.90;62.80;;;;;;4967736;28;20204;-78
2022/04/16 07:15:31;;;;;;;6.40;3.80;;;19.00;62.60;;;;;;4967172;28;20252;-78
2022/04/16 07:18:00;;;;;;;5.93;3.37;;;19.20;62.90;;;;;;4967731;28;20192;-77
2022/04/16 07:20:29;;;;;;;10.57;3.80;;;19.30;62.40;;;;;;4967929;28;20205;-77
2022/04/16 07:23:03;;;;;;;5.93;3.60;;;19.40;61.50;;;;;;4965574;28;20285;-78
2022/04/16 07:25:31;;;;;;;6.73;3.57;;;19.50;61.70;;;;;;4966296;28;20201;-76
2022/04/16 07:39:07;;;;;;;6.07;3.70;;;20.20;60.60;;;;;;4888401;29;20214;-79
2022/04/16 07:41:51;;;;;;;8.50;3.53;;;20.30;60.10;;;;;;4860748;29;20204;-78
2022/04/16 07:45:10;;;;;;;6.27;3.63;;;20.40;59.80;;;;;;4883090;29;20219;-80
2022/04/16 07:55:36;;;;;;;8.23;3.67;;;20.70;58.60;;;;;;4848448;29;20573;-81
2022/04/16 08:06:05;;;;;;;10.50;3.97;;;21.00;58.10;;;;;;4892995;29;20358;-79
2022/04/16 08:08:33;;;;;;;6.27;3.53;;;21.00;57.80;;;;;;4951655;28;20226;-75
2022/04/16 08:11:02;;;;;;;7.77;3.63;;;21.00;57.50;;;;;;4965487;28;20220;-77
2022/04/16 08:13:31;;;;;;;6.63;3.90;;;21.00;57.50;;;;;;4966179;28;20304;-78
2022/04/16 08:16:00;;;;;;;8.50;3.90;;;21.10;57.40;;;;;;4963131;28;20233;-78
2022/04/16 08:18:28;;;;;;;6.73;3.80;;;21.10;57.30;;;;;;4967284;28;20208;-76
2022/04/16 08:20:58;;;;;;;12.77;4.57;;;21.10;57.50;;;;;;4963484;28;20209;-77
2022/04/16 08:23:28;;;;;;;7.30;3.77;;;21.00;57.50;;;;;;4966268;28;20267;-78
2022/04/16 08:25:56;;;;;;;6.97;4.20;;;21.00;57.40;;;;;;4964538;28;20955;-76
2022/04/16 08:28:25;;;;;;;8.03;4.47;;;21.00;57.60;;;;;;4965264;28;20220;-78
2022/04/16 08:30:57;;;;;;;8.27;3.83;;;21.10;57.80;;;;;;4964854;28;20224;-78
2022/04/16 08:33:25;;;;;;;6.88;4.43;;;21.10;57.40;;;;;;4965622;28;20189;-79
2022/04/16 08:35:54;;;;;;;7.57;4.13;;;21.20;57.20;;;;;;4964725;28;20281;-78
2022/04/16 08:38:22;;;;;;;10.67;4.77;;;21.20;57.40;;;;;;4963433;28;20194;-78
2022/04/16 08:40:53;;;;;;;9.30;4.53;;;21.20;57.30;;;;;;4963365;28;20202;-79
2022/04/16 08:43:22;;;;;;;7.00;4.70;;;21.30;57.10;;;;;;4969161;28;20197;-80
2022/04/16 08:45:54;;;;;;;7.82;3.97;;;21.30;56.90;;;;;;4972508;28;20204;-78
2022/04/16 08:48:22;;;;;;;18.23;4.50;;;21.40;56.70;;;;;;4969011;28;20209;-78
2022/04/16 08:50:52;;;;;;;7.83;4.90;;;21.40;56.60;;;;;;4970383;28;20194;-78
2022/04/16 08:53:20;;;;;;;8.30;5.13;;;21.40;56.60;;;;;;4969316;28;20207;-81
2022/04/16 08:55:49;;;;;;;8.57;4.35;;;21.50;56.70;;;;;;4970993;28;20216;-80
2022/04/16 08:58:18;;;;;;;7.20;4.88;;;21.50;56.70;;;;;;4969550;28;20792;-77
2022/04/16 09:00:47;;;;;;;6.53;4.60;;;21.50;56.50;;;;;;4970928;28;20212;-77
2022/04/16 09:03:15;;;;;;;7.97;4.97;;;21.50;56.40;;;;;;4970306;28;20203;-80
2022/04/16 09:05:45;;;;;;;6.95;3.83;;;21.60;56.40;;;;;;4970196;28;20231;-79
2022/04/16 09:08:13;;;;;;;5.95;3.90;;;21.60;56.60;;;;;;4969481;28;20205;-80
2022/04/16 09:10:43;;;;;;;8.13;3.30;;;21.70;56.60;;;;;;4971415;28;20197;-77
2022/04/16 09:13:12;;;;;;;6.28;4.07;;;21.80;56.50;;;;;;4970261;28;20218;-79
2022/04/16 09:15:45;;;;;;;8.40;4.82;;;21.90;56.30;;;;;;4971271;28;20268;-79
2022/04/16 09:18:16;;;;;;;7.60;4.68;;;22.00;55.60;;;;;;4970351;28;20291;-81
2022/04/16 09:20:44;;;;;;;9.32;4.63;;;22.00;56.00;;;;;;4970549;28;20219;-82
2022/04/16 09:23:17;;;;;;;7.20;4.85;;;22.20;56.40;;;;;;4970449;28;20208;-78
2022/04/16 09:25:46;;;;;;;9.73;4.57;;;22.20;56.10;;;;;;4968858;28;20193;-79
2022/04/16 09:28:15;;;;;;;7.28;4.38;;;22.30;55.80;;;;;;4970200;28;20313;-78
2022/04/16 09:30:51;;;;;;;7.57;4.47;;;22.30;55.50;;;;;;4969064;28;20229;-81
2022/04/16 09:33:20;;;;;;;6.57;4.20;;;22.40;55.20;;;;;;4969574;28;20225;-78
2022/04/16 09:35:52;;;;;;;7.57;4.13;;;22.50;55.50;;;;;;4969377;28;20260;-78
2022/04/16 09:38:21;;;;;;;7.50;4.50;;;22.50;55.10;;;;;;4969752;28;20204;-80
2022/04/16 09:40:49;;;;;;;8.13;4.50;;;22.50;55.30;;;;;;4969977;28;20201;-78
2022/04/16 09:43:18;;;;;;;8.52;4.97;;;22.60;55.40;;;;;;4969138;28;20204;-80
2022/04/16 09:45:46;;;;;;;10.98;4.70;;;22.70;55.10;;;;;;4969951;28;20702;-76
2022/04/16 09:48:16;;;;;;;10.85;5.40;;;22.70;54.70;;;;;;4971558;28;20289;-76
2022/04/16 09:50:45;;;;;;;8.85;4.55;;;22.80;53.90;;;;;;4970972;28;20201;-77
2022/04/16 09:53:13;;;;;;;7.97;4.53;;;22.80;54.40;;;;;;4970269;28;20221;-79
2022/04/16 09:55:43;;;;;;;7.47;4.75;;;22.90;54.50;;;;;;4967408;28;20209;-80
2022/04/16 09:58:13;;;;;;;6.70;4.22;;;22.90;54.50;;;;;;4966587;28;20198;-77
2022/04/16 10:00:42;;;;;;;7.85;4.75;;;22.90;54.10;;;;;;4966626;28;20588;-76
2022/04/16 10:03:32;;;;;;;8.15;4.75;;;22.90;53.80;;;;;;4967845;28;20201;-76
2022/04/16 10:06:01;;;;;;;9.25;4.95;;;22.90;54.00;;;;;;4965794;28;20201;-78
2022/04/16 10:08:31;;;;;;;6.63;4.70;;;23.00;54.00;;;;;;4965495;28;20337;-78
2022/04/16 10:11:03;;;;;;;9.55;5.20;;;23.00;53.60;;;;;;4967589;28;20197;-78
2022/04/16 10:13:39;;;;;;;8.30;4.40;;;23.00;53.50;;;;;;4966948;28;20207;-78
2022/04/16 10:16:18;;;;;;;10.07;5.22;;;23.00;53.60;;;;;;4967191;28;20228;-77
2022/04/16 10:18:49;;;;;;;9.48;4.50;;;23.00;53.60;;;;;;4967754;28;20745;-77
2022/04/16 10:21:18;;;;;;;7.88;5.00;;;22.90;53.70;;;;;;4967099;28;20288;-79
2022/04/16 10:23:47;;;;;;;6.50;4.60;;;22.90;53.60;;;;;;4967144;28;21729;-76
2022/04/16 10:26:17;;;;;;;6.43;4.43;;;22.90;53.50;;;;;;4968752;28;21810;-79
2022/04/16 10:28:53;;;;;;;12.50;4.57;;;22.90;53.70;;;;;;4967324;28;20437;-76
2022/04/16 10:31:27;;;;;;;10.52;4.82;;;23.00;53.80;;;;;;4970720;28;20208;-76
2022/04/16 10:33:59;;;;;;;9.85;4.40;;;23.00;53.60;;;;;;4968094;28;20203;-76
2022/04/16 10:36:29;;;;;;;13.88;5.28;;;23.00;53.80;;;;;;4969604;28;20196;-76
2022/04/16 10:38:57;;;;;;;6.63;4.40;;;23.10;53.70;;;;;;4969127;28;20197;-76
2022/04/16 10:41:28;;;;;;;7.10;4.60;;;23.10;53.30;;;;;;4967835;28;20284;-75
2022/04/16 10:43:59;;;;;;;8.70;4.63;;;23.10;53.20;;;;;;4967738;28;20816;-76
2022/04/16 10:46:44;;;;;;;8.75;4.50;;;23.20;52.80;;;;;;4968269;28;20291;-76
2022/04/16 10:49:15;;;;;;;11.80;4.22;;;23.20;52.50;;;;;;4966666;28;20221;-76
2022/04/16 10:51:44;;;;;;;8.57;4.72;;;23.30;52.80;;;;;;4968627;28;20205;-76
2022/04/16 10:54:14;;;;;;;7.82;3.92;;;23.30;53.00;;;;;;4967733;28;20202;-76
2022/04/16 10:56:52;;;;;;;9.45;4.75;;;23.40;52.70;;;;;;4967580;28;20205;-77
2022/04/16 10:59:37;;;;;;;9.13;4.93;;;23.40;52.40;;;;;;4965998;28;20721;-75
2022/04/16 11:02:20;;;;;;;9.43;4.65;;;23.50;51.80;;;;;;4964875;28;20189;-77
2022/04/16 11:05:01;;;;;;;11.30;4.70;;;23.60;51.80;;;;;;4965285;28;21686;-75
2022/04/16 11:07:32;;;;;;;7.53;4.55;;;23.60;51.30;;;;;;4966764;28;20196;-75
2022/04/16 11:10:00;;;;;;;6.13;4.30;;;23.70;51.20;;;;;;4965268;28;20226;-76
2022/04/16 11:12:29;;;;;;;7.28;4.20;;;23.90;51.30;;;;;;4967741;28;20664;-76
2022/04/16 11:14:57;;;;;;;7.35;4.20;;;24.00;51.20;;;;;;4966522;28;20660;-77
2022/04/16 11:17:28;;;;;;;8.73;4.30;;;24.10;50.80;;;;;;4965416;28;20217;-75
2022/04/16 11:20:01;;;;;;;9.40;4.95;;;24.00;50.80;;;;;;4967385;28;20571;-77
2022/04/16 11:22:30;;;;;;;9.45;4.38;;;24.00;51.40;;;;;;4966980;28;20202;-77
2022/04/16 11:24:59;;;;;;;8.07;4.13;;;24.00;51.60;;;;;;4966117;28;20213;-76
2022/04/16 11:35:59;;;;;;;11.60;5.22;;;24.20;50.80;;;;;;4967785;28;20605;-77
2022/04/16 11:38:29;;;;;;;6.43;4.28;;;24.30;50.10;;;;;;4965753;28;20289;-75
2022/04/16 11:41:04;;;;;;;7.90;4.28;;;24.30;49.60;;;;;;4967073;28;20204;-76
2022/04/16 11:43:33;;;;;;;8.45;4.45;;;24.40;50.00;;;;;;4965250;28;20201;-78
2022/04/16 11:46:03;;;;;;;9.70;4.72;;;24.40;49.70;;;;;;4964912;28;20243;-77
2022/04/16 11:48:33;;;;;;;7.28;4.47;;;24.50;49.50;;;;;;4968147;28;20217;-75
2022/04/16 11:51:12;;;;;;;6.28;4.18;;;24.50;49.40;;;;;;4963406;28;20239;-78
2022/04/16 11:53:44;;;;;;;9.73;5.28;;;24.60;49.40;;;;;;4964043;28;20230;-80
2022/04/16 11:56:13;;;;;;;6.65;4.88;;;24.80;49.70;;;;;;4965974;28;20200;-77
2022/04/16 11:58:49;;;;;;;7.28;4.72;;;24.90;50.00;;;;;;4967796;28;20201;-76
2022/04/16 12:01:25;;;;;;;16.90;6.10;;;24.90;49.30;;;;;;4966986;28;20212;-77
2022/04/16 12:03:56;;;;;;;6.97;4.75;;;25.00;49.40;;;;;;4964743;28;20669;-79
2022/04/16 12:06:27;;;;;;;7.38;4.85;;;25.00;48.80;;;;;;4964214;28;20193;-77
2022/04/16 12:08:56;;;;;;;8.90;4.55;;;25.00;49.50;;;;;;4966028;28;20227;-78
2022/04/16 12:11:25;;;;;;;8.35;4.82;;;24.90;49.60;;;;;;4964050;28;20257;-78
2022/04/16 12:13:55;;;;;;;7.97;4.60;;;24.90;49.70;;;;;;4964933;28;20284;-78
2022/04/16 12:16:24;;;;;;;8.90;4.53;;;24.90;49.90;;;;;;4963702;28;20758;-80
2022/04/16 12:18:54;;;;;;;9.02;5.32;;;24.90;50.00;;;;;;4965192;28;20228;-78
2022/04/16 12:21:23;;;;;;;12.85;5.45;;;24.90;50.00;;;;;;4965556;28;20691;-78
2022/04/16 12:23:52;;;;;;;9.43;5.47;;;24.80;49.70;;;;;;4968485;28;20202;-78
2022/04/16 12:26:21;;;;;;;13.32;5.57;;;24.80;50.00;;;;;;4965184;28;20216;-79
2022/04/16 12:28:52;;;;;;;7.93;5.35;;;24.70;50.50;;;;;;4965764;28;20205;-78
2022/04/16 12:31:27;;;;;;;9.73;5.00;;;24.60;50.20;;;;;;4964963;28;20252;-78
2022/04/16 12:33:55;;;;;;;14.65;5.47;;;24.60;50.10;;;;;;4966315;28;20208;-79
2022/04/16 12:36:27;;;;;;;10.32;5.28;;;24.60;50.40;;;;;;4964471;28;20983;-77
2022/04/16 12:38:56;;;;;;;8.70;4.88;;;24.60;50.50;;;;;;4965894;28;20200;-79
2022/04/16 12:41:26;;;;;;;9.05;4.85;;;24.60;50.70;;;;;;4964845;28;20209;-78
2022/04/16 12:43:55;;;;;;;13.50;7.22;;;24.60;50.60;;;;;;4964987;28;20286;-77
2022/04/16 12:46:24;;;;;;;10.85;6.05;;;24.70;50.60;;;;;;4967262;28;20238;-80
2022/04/16 12:48:52;;;;;;;9.35;5.00;;;24.60;50.80;;;;;;4966487;28;20190;-77
2022/04/16 12:51:20;;;;;;;8.15;5.05;;;24.60;50.60;;;;;;4967731;28;20228;-78
2022/04/16 12:53:49;;;;;;;9.35;5.22;;;24.60;50.90;;;;;;4965218;28;20202;-78
2022/04/16 12:56:22;;;;;;;8.88;5.20;;;24.50;50.50;;;;;;4965854;28;21051;-79
2022/04/16 12:58:51;;;;;;;8.15;5.22;;;24.50;50.20;;;;;;4965581;28;20928;-79
2022/04/16 13:01:19;;;;;;;15.85;5.72;;;24.50;50.50;;;;;;4966312;28;20202;-78
2022/04/16 13:03:48;;;;;;;7.82;4.90;;;24.40;50.70;;;;;;4966059;28;20212;-78
2022/04/16 13:06:16;;;;;;;10.98;4.57;;;24.50;50.90;;;;;;4965470;28;20205;-77
2022/04/16 13:08:46;;;;;;;9.75;4.88;;;24.40;50.90;;;;;;4965593;28;20205;-78
2022/04/16 13:11:15;;;;;;;6.68;4.25;;;24.40;50.80;;;;;;4964976;28;20722;-78
2022/04/16 13:13:45;;;;;;;6.07;4.18;;;24.40;50.60;;;;;;4966325;28;20217;-77
2022/04/16 13:16:13;;;;;;;11.95;4.88;;;24.50;50.70;;;;;;4965996;28;20197;-77
2022/04/16 13:18:41;;;;;;;8.25;5.22;;;24.40;50.80;;;;;;4964199;28;20348;-77
2022/04/16 13:21:10;;;;;;;8.07;4.63;;;24.40;51.10;;;;;;4966017;28;20197;-78
2022/04/16 13:23:38;;;;;;;5.95;4.05;;;24.40;51.20;;;;;;4964775;28;20202;-76
2022/04/16 13:26:06;;;;;;;16.13;5.13;;;24.40;51.00;;;;;;4967150;28;20208;-78
2022/04/16 13:28:35;;;;;;;6.95;4.38;;;24.30;50.20;;;;;;4965221;28;20208;-78
2022/04/16 13:31:05;;;;;;;10.18;4.78;;;24.30;50.50;;;;;;4966682;28;20229;-78
2022/04/16 13:33:33;;;;;;;7.18;4.55;;;24.20;50.60;;;;;;4967615;28;20573;-78
2022/04/16 13:36:05;;;;;;;9.52;4.78;;;24.10;50.90;;;;;;4967515;28;20297;-79
2022/04/16 13:38:40;;;;;;;9.38;4.35;;;24.10;50.90;;;;;;4968424;28;20740;-77